Time;durP1;ratioP1;P1;durP2;ratioP2;P2;SDS_P1;SDS_P2;PMS_P1;PMS_P2;Temp;Humidity;BMP_temperature;BMP_pressure;BME280_temperature;BME280_humidity;BME280_pressure;Samples;Min_cycle;Max_cycle;Signal;HPM_P1;HPM_P2
2021/10/18 00:00:53;;;;;;;;;;;11.90;99.90;;;;;;1973076;71;20204;-74
2021/10/18 00:03:20;;;;;;;;;;;12.00;99.90;;;;;;1969247;71;20403;-73
2021/10/18 00:05:47;;;;;;;;;;;12.00;99.90;;;;;;1964701;71;20203;-73
2021/10/18 00:08:14;;;;;;;;;;;12.00;99.90;;;;;;1968837;71;20239;-73
2021/10/18 00:10:40;;;;;;;;;;;12.00;99.90;;;;;;1965553;71;20110;-73
2021/10/18 00:13:07;;;;;;;;;;;11.90;99.90;;;;;;1969497;71;20200;-73
2021/10/18 00:15:34;;;;;;;;;;;11.90;99.90;;;;;;1963959;71;20116;-75
2021/10/18 00:18:01;;;;;;;;;;;11.90;99.90;;;;;;1966468;71;20192;-75
2021/10/18 00:20:29;;;;;;;;;;;11.90;99.90;;;;;;1970999;71;20470;-75
2021/10/18 00:22:55;;;;;;;;;;;11.90;99.90;;;;;;1966707;71;20197;-75
2021/10/18 00:25:22;;;;;;;;;;;11.90;99.90;;;;;;1970981;71;20232;-75
2021/10/18 00:27:49;;;;;;;;;;;12.00;99.90;;;;;;1971589;71;20213;-73
2021/10/18 00:30:16;;;;;;;;;;;12.00;99.90;;;;;;1963494;71;20183;-74
2021/10/18 00:32:43;;;;;;;;;;;11.90;99.90;;;;;;1973156;71;20164;-73
2021/10/18 00:35:10;;;;;;;;;;;12.00;99.90;;;;;;1965011;71;20198;-73
2021/10/18 00:37:37;;;;;;;;;;;12.00;99.90;;;;;;1966133;71;20117;-73
2021/10/18 00:40:05;;;;;;;;;;;12.00;99.90;;;;;;1976205;71;20176;-73
2021/10/18 00:42:32;;;;;;;;;;;12.00;99.90;;;;;;1967896;71;20173;-74
2021/10/18 00:44:59;;;;;;;;;;;12.00;99.90;;;;;;1968870;71;20208;-74
2021/10/18 00:47:26;;;;;;;;;;;12.00;99.90;;;;;;1975750;71;20374;-75
2021/10/18 00:49:52;;;;;;;;;;;12.00;99.90;;;;;;1975321;71;20181;-75
2021/10/18 00:52:20;;;;;;;;;;;12.00;99.90;;;;;;1968652;71;20241;-74
2021/10/18 00:54:49;;;;;;;;;;;12.00;99.90;;;;;;1972757;71;20228;-75
2021/10/18 00:57:16;;;;;;;;;;;12.00;99.90;;;;;;1967035;71;20410;-73
2021/10/18 00:59:44;;;;;;;;;;;12.00;99.90;;;;;;1970539;71;20510;-75
2021/10/18 01:02:11;;;;;;;;;;;12.00;99.90;;;;;;1968572;71;20529;-74
2021/10/18 01:04:38;;;;;;;;;;;12.10;99.90;;;;;;1968080;71;20249;-73
2021/10/18 01:07:05;;;;;;;;;;;12.00;99.90;;;;;;1964085;71;20167;-74
2021/10/18 01:09:32;;;;;;;;;;;12.00;99.90;;;;;;1967732;71;20228;-73
2021/10/18 01:11:59;;;;;;;;;;;12.00;99.90;;;;;;1966468;71;20196;-73
2021/10/18 01:14:26;;;;;;;;;;;12.00;99.90;;;;;;1966423;72;20208;-73
2021/10/18 01:16:52;;;;;;;;;;;12.10;99.90;;;;;;1964054;72;20113;-72
2021/10/18 01:19:24;;;;;;;;;;;12.00;99.90;;;;;;1964501;72;20178;-71
2021/10/18 01:21:49;;;;;;;;;;;12.00;99.90;;;;;;1965117;71;20342;-73
2021/10/18 01:24:16;;;;;;;;;;;12.00;99.90;;;;;;1968162;72;20158;-73
2021/10/18 01:26:43;;;;;;;;;;;12.00;99.90;;;;;;1965325;71;20199;-73
2021/10/18 01:29:10;;;;;;;;;;;12.00;99.90;;;;;;1963671;71;20666;-74
2021/10/18 01:31:39;;;;;;;;;;;12.00;99.90;;;;;;1971602;71;20205;-73
2021/10/18 01:34:06;;;;;;;;;;;12.00;99.90;;;;;;1971552;71;20159;-73
2021/10/18 01:36:34;;;;;;;;;;;12.00;99.90;;;;;;1968146;71;20512;-73
2021/10/18 01:39:00;;;;;;;;;;;12.10;99.90;;;;;;1968832;71;20397;-73
2021/10/18 01:41:27;;;;;;;;;;;12.00;99.90;;;;;;1968528;71;20175;-74
2021/10/18 01:43:54;;;;;;;;;;;12.10;99.90;;;;;;1967284;71;20465;-72
2021/10/18 01:46:21;;;;;;;;;;;12.00;99.90;;;;;;1966291;71;20237;-72
2021/10/18 01:48:48;;;;;;;;;;;12.00;99.90;;;;;;1971106;71;20480;-74
2021/10/18 01:51:15;;;;;;;;;;;12.00;99.90;;;;;;1964949;71;20192;-74
2021/10/18 01:53:41;;;;;;;;;;;12.00;99.90;;;;;;1976057;70;20156;-74
2021/10/18 01:56:08;;;;;;;;;;;12.00;99.90;;;;;;1982996;70;20482;-74
2021/10/18 01:58:35;;;;;;;;;;;12.00;99.90;;;;;;1978967;70;20221;-74
2021/10/18 02:01:03;;;;;;;;;;;12.00;99.90;;;;;;1980392;70;20170;-73
2021/10/18 02:03:30;;;;;;;;;;;12.00;99.90;;;;;;1978912;70;20219;-73
2021/10/18 02:05:57;;;;;;;;;;;11.90;99.90;;;;;;1980592;70;20164;-73
2021/10/18 02:08:24;;;;;;;;;;;11.90;99.90;;;;;;1980536;70;20169;-73
2021/10/18 02:10:51;;;;;;;;;;;12.00;99.90;;;;;;1982592;70;20327;-73
2021/10/18 02:13:18;;;;;;;;;;;12.00;99.90;;;;;;1983062;70;20221;-73
2021/10/18 02:15:45;;;;;;;;;;;12.00;99.90;;;;;;1981414;70;20182;-73
2021/10/18 02:18:11;;;;;;;;;;;12.00;99.90;;;;;;1982482;70;20202;-73
2021/10/18 02:20:38;;;;;;;;;;;12.00;99.90;;;;;;1980503;70;20450;-73
2021/10/18 02:23:05;;;;;;;;;;;12.00;99.90;;;;;;1981353;70;20162;-73
2021/10/18 02:25:32;;;;;;;;;;;12.00;99.90;;;;;;1984512;70;20173;-73
2021/10/18 02:27:59;;;;;;;;;;;11.90;99.90;;;;;;1982405;70;20224;-73
2021/10/18 02:30:25;;;;;;;;;;;12.00;99.90;;;;;;1981487;70;20100;-73
2021/10/18 02:32:52;;;;;;;;;;;12.00;99.90;;;;;;1982145;70;20182;-74
2021/10/18 02:35:19;;;;;;;;;;;11.90;99.90;;;;;;1979871;70;20159;-73
2021/10/18 02:37:46;;;;;;;;;;;11.90;99.90;;;;;;1983250;70;20409;-73
2021/10/18 02:40:13;;;;;;;;;;;11.90;99.90;;;;;;1984062;70;20210;-73
2021/10/18 02:42:40;;;;;;;;;;;11.90;99.90;;;;;;1988790;70;20194;-73
2021/10/18 02:45:11;;;;;;;;;;;11.90;99.90;;;;;;1983079;70;20202;-73
2021/10/18 02:47:36;;;;;;;;;;;11.90;99.90;;;;;;1981000;70;20186;-73
2021/10/18 02:50:03;;;;;;;;;;;11.90;99.90;;;;;;1985204;70;20162;-73
2021/10/18 02:52:30;;;;;;;;;;;11.90;99.90;;;;;;1984621;70;20153;-73
2021/10/18 02:54:57;;;;;;;;;;;11.90;99.90;;;;;;1984511;70;20200;-73
2021/10/18 02:57:23;;;;;;;;;;;11.90;99.90;;;;;;1984574;70;20499;-73
2021/10/18 02:59:50;;;;;;;;;;;11.90;99.90;;;;;;1983159;70;20279;-73
2021/10/18 03:02:17;;;;;;;;;;;11.90;99.90;;;;;;1987693;70;20567;-73
2021/10/18 03:04:46;;;;;;;;;;;11.90;99.90;;;;;;1988256;70;20416;-74
2021/10/18 03:07:13;;;;;;;;;;;11.90;99.90;;;;;;1982912;70;20167;-73
2021/10/18 03:09:40;;;;;;;;;;;11.90;99.90;;;;;;1984272;70;20209;-73
2021/10/18 03:12:07;;;;;;;;;;;11.80;99.90;;;;;;1984563;70;20433;-73
2021/10/18 03:14:33;;;;;;;;;;;11.90;99.90;;;;;;1988475;70;20172;-74
2021/10/18 03:17:00;;;;;;;;;;;11.90;99.90;;;;;;1983556;70;20201;-73
2021/10/18 03:19:27;;;;;;;;;;;11.90;99.90;;;;;;1984827;70;20139;-73
2021/10/18 03:21:54;;;;;;;;;;;11.80;99.90;;;;;;1983743;70;20147;-73
2021/10/18 03:24:20;;;;;;;;;;;11.80;99.90;;;;;;1984666;70;20192;-73
2021/10/18 03:26:47;;;;;;;;;;;11.80;99.90;;;;;;1985712;70;20149;-73
2021/10/18 03:29:14;;;;;;;;;;;11.80;99.90;;;;;;1983192;70;20718;-72
2021/10/18 03:31:41;;;;;;;;;;;11.80;99.90;;;;;;1980325;70;20151;-72
2021/10/18 03:34:08;;;;;;;;;;;11.80;99.90;;;;;;1987679;70;20499;-72
2021/10/18 03:36:34;;;;;;;;;;;11.80;99.90;;;;;;1986072;70;20204;-73
2021/10/18 03:39:01;;;;;;;;;;;11.80;99.90;;;;;;1982824;70;20400;-73
2021/10/18 03:41:28;;;;;;;;;;;11.80;99.90;;;;;;1980112;70;20245;-73
2021/10/18 03:43:55;;;;;;;;;;;11.70;99.90;;;;;;1982385;70;20110;-73
2021/10/18 03:46:22;;;;;;;;;;;11.80;99.90;;;;;;1982650;70;20855;-73
2021/10/18 03:48:48;;;;;;;;;;;11.70;99.90;;;;;;1984542;70;20168;-72
2021/10/18 03:51:16;;;;;;;;;;;11.80;99.90;;;;;;1984677;70;20152;-73
2021/10/18 03:53:43;;;;;;;;;;;11.80;99.90;;;;;;1983543;70;20179;-72
2021/10/18 03:56:09;;;;;;;;;;;11.80;99.90;;;;;;1984372;70;20180;-73
2021/10/18 03:58:36;;;;;;;;;;;11.80;99.90;;;;;;1984609;70;20163;-72
2021/10/18 04:01:08;;;;;;;;;;;11.80;99.90;;;;;;1986047;70;20178;-72
2021/10/18 04:03:31;;;;;;;;;;;11.80;99.90;;;;;;1978253;70;20560;-72
2021/10/18 04:05:58;;;;;;;;;;;11.80;99.90;;;;;;1981147;70;20156;-73
2021/10/18 04:08:27;;;;;;;;;;;11.80;99.90;;;;;;1977876;70;20632;-72
2021/10/18 04:10:53;;;;;;;;;;;11.80;99.90;;;;;;1982933;70;20191;-73
2021/10/18 04:13:20;;;;;;;;;;;11.80;99.90;;;;;;1983514;70;20136;-73
2021/10/18 04:15:47;;;;;;;;;;;11.80;99.90;;;;;;1985498;70;20160;-73
2021/10/18 04:18:14;;;;;;;;;;;11.80;99.90;;;;;;1982657;70;20150;-73
2021/10/18 04:20:41;;;;;;;;;;;11.80;99.90;;;;;;1985604;70;20333;-73
2021/10/18 04:23:07;;;;;;;;;;;11.80;99.90;;;;;;1986345;70;20218;-73
2021/10/18 04:25:34;;;;;;;;;;;11.80;99.90;;;;;;1985596;70;20117;-73
2021/10/18 04:28:01;;;;;;;;;;;11.80;99.90;;;;;;1980931;70;20163;-73
2021/10/18 04:30:28;;;;;;;;;;;11.70;99.90;;;;;;1983373;70;20163;-73
2021/10/18 04:32:56;;;;;;;;;;;11.70;99.90;;;;;;1985355;70;20502;-73
2021/10/18 04:35:23;;;;;;;;;;;11.70;99.90;;;;;;1984999;70;20132;-73
2021/10/18 04:37:50;;;;;;;;;;;11.80;99.90;;;;;;1987186;70;20168;-73
2021/10/18 04:40:16;;;;;;;;;;;11.70;99.90;;;;;;1993640;70;20218;-73
2021/10/18 04:42:43;;;;;;;;;;;11.70;99.90;;;;;;1982120;70;20179;-73
2021/10/18 04:45:10;;;;;;;;;;;11.70;99.90;;;;;;1983398;70;20215;-73
2021/10/18 04:47:41;;;;;;;;;;;11.70;99.90;;;;;;1984994;70;20250;-73
2021/10/18 04:50:08;;;;;;;;;;;11.70;99.90;;;;;;1986877;70;20215;-73
2021/10/18 04:52:35;;;;;;;;;;;11.70;99.90;;;;;;1980372;70;20160;-73
2021/10/18 04:55:02;;;;;;;;;;;11.70;99.90;;;;;;1979863;70;20176;-73
2021/10/18 04:57:29;;;;;;;;;;;11.70;99.90;;;;;;1984067;70;20176;-73
2021/10/18 04:59:55;;;;;;;;;;;11.70;99.90;;;;;;1987411;70;20172;-73
2021/10/18 05:02:22;;;;;;;;;;;11.70;99.90;;;;;;1983575;70;20182;-72
2021/10/18 05:04:49;;;;;;;;;;;11.70;99.90;;;;;;1979961;70;20124;-72
2021/10/18 05:07:16;;;;;;;;;;;11.70;99.90;;;;;;1988499;70;20178;-72
2021/10/18 05:09:42;;;;;;;;;;;11.60;99.90;;;;;;1981097;70;20227;-73
2021/10/18 05:12:09;;;;;;;;;;;11.70;99.90;;;;;;1981982;70;20170;-72
2021/10/18 05:14:36;;;;;;;;;;;11.70;99.90;;;;;;1982219;70;20212;-73
2021/10/18 05:17:03;;;;;;;;;;;11.70;99.90;;;;;;1976455;70;20160;-73
2021/10/18 05:19:30;;;;;;;;;;;11.70;99.90;;;;;;1983807;70;20837;-73
2021/10/18 05:21:56;;;;;;;;;;;11.70;99.90;;;;;;1980662;70;20248;-73
2021/10/18 05:24:23;;;;;;;;;;;11.60;99.90;;;;;;1984030;70;20438;-73
2021/10/18 05:26:50;;;;;;;;;;;11.70;99.90;;;;;;1979979;70;20352;-73
2021/10/18 05:29:17;;;;;;;;;;;11.70;99.90;;;;;;1983066;70;20466;-73
2021/10/18 05:31:44;;;;;;;;;;;11.70;99.90;;;;;;1986429;70;20112;-73
2021/10/18 05:34:10;;;;;;;;;;;11.70;99.90;;;;;;1981130;70;20476;-73
2021/10/18 05:36:37;;;;;;;;;;;11.70;99.90;;;;;;1986296;70;20241;-73
2021/10/18 05:39:04;;;;;;;;;;;11.70;99.90;;;;;;1987658;70;20459;-73
2021/10/18 05:41:31;;;;;;;;;;;11.70;99.90;;;;;;1980484;70;20514;-72
2021/10/18 05:43:59;;;;;;;;;;;11.70;99.90;;;;;;1986863;70;20143;-73
2021/10/18 05:46:26;;;;;;;;;;;11.70;99.90;;;;;;1984384;70;20186;-73
2021/10/18 05:48:52;;;;;;;;;;;11.70;99.90;;;;;;1985051;70;20154;-72
2021/10/18 05:51:19;;;;;;;;;;;11.70;99.90;;;;;;1978351;70;20217;-73
2021/10/18 05:53:46;;;;;;;;;;;11.70;99.90;;;;;;1981572;70;20117;-73
2021/10/18 05:56:13;;;;;;;;;;;11.80;99.90;;;;;;1982260;70;20176;-73
2021/10/18 05:58:40;;;;;;;;;;;11.80;99.90;;;;;;1980950;70;20166;-72
2021/10/18 06:01:07;;;;;;;;;;;11.70;99.90;;;;;;1981706;70;20170;-72
2021/10/18 06:03:34;;;;;;;;;;;11.70;99.90;;;;;;1979530;70;20229;-73
2021/10/18 06:06:02;;;;;;;;;;;11.80;99.90;;;;;;1986408;70;20222;-72
2021/10/18 06:08:29;;;;;;;;;;;11.70;99.90;;;;;;1980196;70;20158;-79
2021/10/18 06:10:56;;;;;;;;;;;11.70;99.90;;;;;;1982890;70;20233;-72
2021/10/18 06:13:22;;;;;;;;;;;11.80;99.90;;;;;;1983664;70;20226;-72
2021/10/18 06:15:49;;;;;;;;;;;11.90;99.90;;;;;;1982516;70;20207;-73
2021/10/18 06:18:17;;;;;;;;;;;11.80;99.90;;;;;;1984199;70;20175;-73
2021/10/18 06:20:45;;;;;;;;;;;11.70;99.90;;;;;;1983053;70;20160;-73
2021/10/18 06:23:13;;;;;;;;;;;11.70;99.90;;;;;;1984353;70;20522;-74
2021/10/18 06:25:40;;;;;;;;;;;11.80;99.90;;;;;;1980913;70;20241;-74
2021/10/18 06:28:11;;;;;;;;;;;11.80;99.90;;;;;;1987990;70;20190;-73
2021/10/18 06:30:36;;;;;;;;;;;11.70;99.90;;;;;;1977472;70;20220;-72
2021/10/18 06:33:06;;;;;;;;;;;11.80;99.90;;;;;;1982682;70;20167;-72
2021/10/18 06:35:36;;;;;;;;;;;11.80;99.90;;;;;;1979763;70;20162;-73
2021/10/18 06:38:04;;;;;;;;;;;11.80;99.90;;;;;;1979714;70;20178;-74
2021/10/18 06:40:31;;;;;;;;;;;11.80;99.90;;;;;;1978382;70;20487;-74
2021/10/18 06:42:58;;;;;;;;;;;11.80;99.90;;;;;;1983388;70;20207;-75
2021/10/18 06:45:24;;;;;;;;;;;11.80;99.90;;;;;;1983688;70;20168;-74
2021/10/18 06:47:51;;;;;;;;;;;11.80;99.90;;;;;;1987101;70;20219;-74
2021/10/18 06:50:20;;;;;;;;;;;11.80;99.90;;;;;;1982165;70;20195;-75
2021/10/18 06:52:46;;;;;;;;;;;11.80;99.90;;;;;;1987735;70;20209;-74
2021/10/18 06:55:16;;;;;;;;;;;11.80;99.90;;;;;;1990140;70;20123;-74
2021/10/18 06:57:42;;;;;;;;;;;11.80;99.90;;;;;;1988495;70;20409;-73
2021/10/18 07:00:09;;;;;;;;;;;11.90;99.90;;;;;;1985494;70;20166;-73
2021/10/18 07:02:35;;;;;;;;;;;11.90;99.90;;;;;;1981761;70;20173;-74
2021/10/18 07:05:02;;;;;;;;;;;11.90;99.90;;;;;;1987339;70;20106;-73
2021/10/18 07:07:29;;;;;;;;;;;11.90;99.90;;;;;;1979403;70;20208;-73
2021/10/18 07:10:00;;;;;;;;;;;11.90;99.90;;;;;;1983422;70;20150;-73
2021/10/18 07:12:26;;;;;;;;;;;11.90;99.90;;;;;;1982545;70;20177;-72
2021/10/18 07:14:53;;;;;;;;;;;11.90;99.90;;;;;;1983566;70;20190;-73
2021/10/18 07:17:21;;;;;;;;;;;11.90;99.90;;;;;;1981877;70;20182;-72
2021/10/18 07:19:50;;;;;;;;;;;11.90;99.90;;;;;;1986218;70;20188;-73
2021/10/18 07:22:21;;;;;;;;;;;12.00;99.90;;;;;;1989876;70;20119;-72
2021/10/18 07:24:48;;;;;;;;;;;12.00;99.90;;;;;;1985852;70;20169;-73
2021/10/18 07:27:15;;;;;;;;;;;12.00;99.90;;;;;;1980427;71;20112;-73
2021/10/18 07:29:41;;;;;;;;;;;12.00;99.90;;;;;;1981388;70;20162;-73
2021/10/18 07:32:08;;;;;;;;;;;12.10;99.90;;;;;;1989886;70;20121;-72
2021/10/18 07:34:35;;;;;;;;;;;12.10;99.90;;;;;;1981657;70;20175;-72
2021/10/18 07:37:02;;;;;;;;;;;12.10;99.90;;;;;;1985959;70;20168;-73
2021/10/18 07:39:29;;;;;;;;;;;12.10;99.90;;;;;;1983299;70;20117;-72
2021/10/18 07:41:57;;;;;;;;;;;12.10;99.90;;;;;;1984522;70;20165;-73
2021/10/18 07:44:28;;;;;;;;;;;12.10;99.90;;;;;;1985090;70;20170;-73
2021/10/18 07:46:58;;;;;;;;;;;12.10;99.90;;;;;;1985801;70;20226;-72
2021/10/18 07:49:27;;;;;;;;;;;12.10;99.90;;;;;;1985177;70;20461;-72
2021/10/18 07:51:54;;;;;;;;;;;12.10;99.90;;;;;;1989811;70;20147;-72
2021/10/18 07:54:23;;;;;;;;;;;12.20;99.90;;;;;;1980321;70;20409;-72
2021/10/18 07:56:50;;;;;;;;;;;12.20;99.90;;;;;;1989079;70;20258;-74
2021/10/18 07:59:17;;;;;;;;;;;12.20;99.90;;;;;;1983356;71;20147;-73
2021/10/18 08:01:44;;;;;;;;;;;12.20;99.90;;;;;;1978343;72;20504;-73
2021/10/18 08:04:11;;;;;;;;;;;12.20;99.90;;;;;;1985794;70;20224;-73
2021/10/18 08:06:37;;;;;;;;;;;12.20;99.90;;;;;;1978251;72;20416;-74
2021/10/18 08:09:07;;;;;;;;;;;12.20;99.90;;;;;;1982676;70;20230;-74
2021/10/18 08:11:33;;;;;;;;;;;12.20;99.90;;;;;;1980692;72;20146;-73
2021/10/18 08:14:00;;;;;;;;;;;12.20;99.90;;;;;;1986916;70;20165;-73
2021/10/18 08:16:26;;;;;;;;;;;12.20;99.90;;;;;;1984305;70;20164;-73
2021/10/18 08:18:53;;;;;;;;;;;12.20;99.90;;;;;;1985332;70;20119;-74
2021/10/18 08:21:22;;;;;;;;;;;12.20;99.90;;;;;;1984506;72;20239;-74
2021/10/18 08:23:49;;;;;;;;;;;12.30;99.90;;;;;;1986225;70;20237;-73
2021/10/18 08:26:16;;;;;;;;;;;12.30;99.90;;;;;;1990436;70;20192;-73
2021/10/18 08:28:43;;;;;;;;;;;12.30;99.90;;;;;;1984397;70;20183;-74
2021/10/18 08:31:09;;;;;;;;;;;12.30;99.90;;;;;;1983548;70;20133;-73
2021/10/18 08:33:36;;;;;;;;;;;12.30;99.90;;;;;;1981205;70;20174;-74
2021/10/18 08:36:05;;;;;;;;;;;12.30;99.90;;;;;;1982400;70;20202;-73
2021/10/18 08:38:47;;;;;;;;;;;12.30;99.90;;;;;;1981465;70;20169;-74
2021/10/18 08:41:27;;;;;;;;;;;12.40;99.90;;;;;;1982015;70;20196;-73
2021/10/18 08:46:25;;;;;;;;;;;12.40;99.90;;;;;;1984396;70;20117;-73
2021/10/18 08:48:53;;;;;;;;;;;12.40;99.90;;;;;;1984409;72;20115;-74
2021/10/18 08:51:21;;;;;;;;;;;12.40;99.90;;;;;;1985846;70;20134;-73
2021/10/18 08:53:47;;;;;;;;;;;12.50;99.90;;;;;;1985135;70;20153;-73
2021/10/18 08:56:14;;;;;;;;;;;12.50;99.90;;;;;;1980812;70;20121;-74
2021/10/18 08:58:41;;;;;;;;;;;12.60;99.90;;;;;;1983472;71;20244;-74
2021/10/18 09:01:08;;;;;;;;;;;12.60;99.90;;;;;;1983033;70;20160;-74
2021/10/18 09:03:35;;;;;;;;;;;12.60;99.90;;;;;;1980778;70;20119;-74
2021/10/18 09:06:12;;;;;;;;;;;12.50;99.90;;;;;;1982731;70;20161;-75
2021/10/18 09:08:43;;;;;;;;;;;12.60;99.90;;;;;;1984011;72;20210;-74
2021/10/18 09:11:18;;;;;;;;;;;12.70;99.90;;;;;;1982257;70;20206;-74
2021/10/18 09:13:52;;;;;;;;;;;12.70;99.90;;;;;;1983661;70;20193;-74
2021/10/18 09:16:32;;;;;;;;;;;12.70;99.90;;;;;;1983160;70;20131;-74
2021/10/18 09:19:05;;;;;;;;;;;12.80;99.90;;;;;;1982450;71;20121;-74
2021/10/18 09:21:33;;;;;;;;;;;12.70;99.90;;;;;;1987457;70;20188;-75
2021/10/18 09:24:02;;;;;;;;;;;12.70;99.90;;;;;;1988452;70;20202;-74
2021/10/18 09:26:31;;;;;;;;;;;12.70;99.90;;;;;;1987373;70;20200;-74
2021/10/18 09:28:59;;;;;;;;;;;12.70;99.90;;;;;;1983298;71;20612;-74
2021/10/18 09:31:26;;;;;;;;;;;12.70;99.90;;;;;;1977525;70;20217;-74
2021/10/18 09:33:57;;;;;;;;;;;12.80;99.90;;;;;;1981393;70;20438;-74
2021/10/18 09:36:30;;;;;;;;;;;12.80;99.90;;;;;;1983238;70;20113;-74
2021/10/18 09:39:10;;;;;;;;;;;12.70;99.90;;;;;;1983863;71;20156;-74
2021/10/18 09:41:38;;;;;;;;;;;12.80;99.90;;;;;;1978898;70;20528;-75
2021/10/18 09:44:12;;;;;;;;;;;12.80;99.90;;;;;;1986679;70;20518;-75
2021/10/18 09:46:46;;;;;;;;;;;12.80;99.90;;;;;;1983151;70;20164;-74
2021/10/18 10:53:20;;;;;;;;;;;13.50;99.90;;;;;;1983148;70;20154;-73
2021/10/18 10:55:43;;;;;;;;;;;13.60;99.90;;;;;;1987642;70;20428;-74
2021/10/18 10:58:28;;;;;;;;;;;13.60;99.90;;;;;;1978611;72;20512;-74
2021/10/18 11:00:55;;;;;;;;;;;13.60;99.90;;;;;;1988403;70;20143;-73
2021/10/18 11:03:30;;;;;;;;;;;13.70;99.90;;;;;;1986690;70;20878;-71
2021/10/18 11:05:56;;;;;;;;;;;13.70;99.90;;;;;;1983742;70;20287;-77
2021/10/18 11:08:33;;;;;;;;;;;13.70;99.90;;;;;;1988261;71;20210;-76
2021/10/18 11:11:16;;;;;;;;;;;13.70;99.90;;;;;;1976498;72;20456;-75
2021/10/18 11:13:48;;;;;;;;;;;13.80;99.90;;;;;;1979229;70;20180;-77
2021/10/18 11:16:16;;;;;;;;;;;13.80;99.90;;;;;;1978831;72;20109;-76
2021/10/18 11:18:45;;;;;;;;;;;13.80;99.90;;;;;;1987099;70;20171;-73
2021/10/18 11:21:16;;;;;;;;;;;13.80;99.90;;;;;;1979472;72;20209;-72
2021/10/18 11:23:55;;;;;;;;;;;13.90;99.90;;;;;;1980290;70;20168;-73
2021/10/18 11:26:22;;;;;;;;;;;13.90;99.90;;;;;;1978243;70;20477;-72
2021/10/18 11:28:53;;;;;;;;;;;13.90;99.90;;;;;;1978608;71;20186;-73
2021/10/18 11:31:21;;;;;;;;;;;14.00;99.90;;;;;;1981526;71;20493;-73
2021/10/18 11:34:01;;;;;;;;;;;14.00;99.90;;;;;;1975656;70;20112;-73
2021/10/18 11:36:28;;;;;;;;;;;14.10;99.90;;;;;;1987010;70;20214;-72
2021/10/18 11:39:12;;;;;;;;;;;14.10;99.90;;;;;;1980163;70;20143;-72
2021/10/18 11:41:57;;;;;;;;;;;14.10;99.90;;;;;;1981786;71;20149;-73
2021/10/18 11:44:42;;;;;;;;;;;14.10;99.90;;;;;;1983312;70;20222;-73
2021/10/18 11:47:26;;;;;;;;;;;14.10;99.90;;;;;;1980266;72;20447;-71
2021/10/18 11:50:11;;;;;;;;;;;14.10;99.90;;;;;;1984377;70;20269;-72
2021/10/18 11:52:58;;;;;;;;;;;14.20;99.90;;;;;;1982221;70;20148;-71
2021/10/18 11:55:36;;;;;;;;;;;14.10;99.90;;;;;;1981586;70;20197;-72
2021/10/18 11:58:05;;;;;;;;;;;14.20;99.90;;;;;;1977244;71;20117;-71
2021/10/18 12:00:41;;;;;;;;;;;14.20;99.90;;;;;;1986905;70;20210;-71
2021/10/18 12:03:10;;;;;;;;;;;14.20;99.90;;;;;;1981084;70;20444;-72
2021/10/18 12:05:38;;;;;;;;;;;14.20;99.90;;;;;;1978969;70;20168;-72
2021/10/18 12:08:06;;;;;;;;;;;14.20;99.90;;;;;;1982915;72;20105;-72
2021/10/18 12:10:34;;;;;;;;;;;14.30;99.90;;;;;;1999369;70;20207;-71
2021/10/18 12:13:08;;;;;;;;;;;14.30;99.90;;;;;;1982732;70;20202;-71
2021/10/18 12:15:40;;;;;;;;;;;14.30;99.90;;;;;;2000071;70;20442;-70
2021/10/18 12:18:07;;;;;;;;;;;14.30;99.90;;;;;;1975877;70;20120;-70
2021/10/18 12:20:34;;;;;;;;;;;14.30;99.90;;;;;;1985692;70;20571;-70
2021/10/18 12:23:02;;;;;;;;;;;14.30;99.90;;;;;;1984658;70;20144;-70
2021/10/18 12:25:29;;;;;;;;;;;14.30;99.90;;;;;;1986210;70;20147;-70
2021/10/18 12:27:57;;;;;;;;;;;14.30;99.90;;;;;;1991680;71;20194;-70
2021/10/18 12:30:38;;;;;;;;;;;14.30;99.90;;;;;;1980922;70;20176;-70
2021/10/18 12:33:14;;;;;;;;;;;14.30;99.90;;;;;;1985290;70;20514;-70
2021/10/18 12:35:41;;;;;;;;;;;14.40;99.90;;;;;;1998574;70;20119;-72
2021/10/18 12:38:12;;;;;;;;;;;14.40;99.90;;;;;;1989479;70;20176;-71
2021/10/18 12:40:42;;;;;;;;;;;14.50;99.90;;;;;;1985005;70;20117;-72
2021/10/18 12:43:10;;;;;;;;;;;14.60;99.90;;;;;;1979327;70;20200;-70
2021/10/18 12:45:37;;;;;;;;;;;14.60;99.90;;;;;;1980938;70;20172;-70
2021/10/18 12:48:04;;;;;;;;;;;14.60;99.90;;;;;;1985232;72;20121;-70
2021/10/18 12:50:36;;;;;;;;;;;14.60;99.90;;;;;;1985610;70;20180;-70
2021/10/18 12:53:01;;;;;;;;;;;14.70;99.90;;;;;;1997977;70;20527;-70
2021/10/18 12:55:34;;;;;;;;;;;14.70;99.90;;;;;;1988944;70;20380;-70
2021/10/18 12:58:02;;;;;;;;;;;14.80;99.90;;;;;;1979558;70;20180;-70
2021/10/18 13:00:33;;;;;;;;;;;14.80;99.90;;;;;;1982161;70;20165;-70
2021/10/18 13:03:10;;;;;;;;;;;14.80;99.90;;;;;;1988574;70;20200;-70
2021/10/18 13:05:38;;;;;;;;;;;14.80;99.90;;;;;;1981631;71;20141;-69
2021/10/18 13:08:05;;;;;;;;;;;14.70;99.90;;;;;;1983774;70;20219;-70
2021/10/18 13:10:33;;;;;;;;;;;14.70;99.90;;;;;;1980104;70;20213;-70
2021/10/18 13:13:01;;;;;;;;;;;14.70;99.90;;;;;;1985718;70;20223;-71
2021/10/18 13:15:30;;;;;;;;;;;14.70;99.90;;;;;;1982866;70;20147;-72
2021/10/18 13:18:05;;;;;;;;;;;14.70;99.90;;;;;;1979760;72;20397;-72
2021/10/18 13:20:29;;;;;;;;;;;14.70;99.90;;;;;;1980946;70;20371;-72
2021/10/18 13:22:58;;;;;;;;;;;14.70;99.90;;;;;;1980161;70;20310;-72
2021/10/18 13:25:26;;;;;;;;;;;14.70;99.90;;;;;;1980974;71;20182;-72
2021/10/18 13:27:53;;;;;;;;;;;14.70;99.90;;;;;;1985315;70;20381;-72
2021/10/18 13:30:21;;;;;;;;;;;14.80;99.90;;;;;;1997264;70;20477;-72
2021/10/18 13:32:49;;;;;;;;;;;14.80;99.90;;;;;;1989350;70;20446;-72
2021/10/18 13:35:16;;;;;;;;;;;14.90;99.90;;;;;;1984217;70;20151;-72
2021/10/18 13:37:43;;;;;;;;;;;14.90;99.90;;;;;;1990702;70;20562;-72
2021/10/18 13:40:14;;;;;;;;;;;14.90;99.90;;;;;;1981834;70;20166;-73
2021/10/18 13:42:41;;;;;;;;;;;14.90;99.90;;;;;;1983563;69;20160;-73
2021/10/18 13:45:09;;;;;;;;;;;15.00;99.90;;;;;;1983736;70;20168;-73
2021/10/18 13:47:36;;;;;;;;;;;15.00;99.90;;;;;;1986168;70;20238;-73
2021/10/18 13:50:03;;;;;;;;;;;15.00;99.90;;;;;;1987429;70;20254;-73
2021/10/18 13:52:32;;;;;;;;;;;15.00;99.90;;;;;;1980440;70;20190;-73
2021/10/18 13:54:59;;;;;;;;;;;15.00;99.90;;;;;;1983888;70;20114;-73
2021/10/18 13:57:29;;;;;;;;;;;15.00;99.90;;;;;;1982232;70;20178;-74
2021/10/18 13:59:55;;;;;;;;;;;15.00;99.90;;;;;;1985806;70;20190;-72
2021/10/18 14:02:21;;;;;;;;;;;15.00;99.90;;;;;;1983885;71;20442;-72
2021/10/18 14:04:48;;;;;;;;;;;15.00;99.90;;;;;;1990724;70;20170;-72
2021/10/18 14:07:16;;;;;;;;;;;15.00;99.90;;;;;;1986757;70;20129;-72
2021/10/18 14:09:43;;;;;;;;;;;15.00;99.90;;;;;;1982974;70;20454;-72
2021/10/18 14:12:11;;;;;;;;;;;15.00;99.90;;;;;;1978475;71;20389;-72
2021/10/18 14:14:38;;;;;;;;;;;15.00;99.90;;;;;;1986026;70;20195;-73
2021/10/18 14:17:05;;;;;;;;;;;15.00;99.90;;;;;;1986373;70;20207;-72
2021/10/18 14:19:32;;;;;;;;;;;15.00;99.90;;;;;;1987280;70;20123;-72
2021/10/18 14:21:59;;;;;;;;;;;14.90;99.90;;;;;;1991358;70;20202;-72
2021/10/18 14:24:27;;;;;;;;;;;15.00;99.90;;;;;;1984749;70;20112;-72
2021/10/18 14:26:54;;;;;;;;;;;15.00;99.90;;;;;;1983770;70;20145;-72
2021/10/18 14:29:20;;;;;;;;;;;14.90;99.90;;;;;;1982845;70;20263;-72
2021/10/18 14:31:47;;;;;;;;;;;14.90;99.90;;;;;;1979212;70;20172;-72
2021/10/18 14:34:15;;;;;;;;;;;14.90;99.90;;;;;;1982169;70;20119;-71
2021/10/18 14:36:41;;;;;;;;;;;14.90;99.90;;;;;;1981985;70;20224;-72
2021/10/18 14:39:08;;;;;;;;;;;14.90;99.90;;;;;;1986245;70;20208;-72
2021/10/18 14:41:35;;;;;;;;;;;14.80;99.90;;;;;;1984124;70;20160;-72
2021/10/18 14:44:03;;;;;;;;;;;14.70;99.90;;;;;;1988083;70;20430;-72
2021/10/18 14:46:30;;;;;;;;;;;14.70;99.90;;;;;;1981480;70;20165;-72
2021/10/18 14:48:57;;;;;;;;;;;14.70;99.90;;;;;;1990552;70;20218;-73
2021/10/18 14:51:24;;;;;;;;;;;14.70;99.90;;;;;;1989629;70;20617;-72
2021/10/18 14:53:59;;;;;;;;;;;14.70;99.90;;;;;;1988901;70;20506;-71
2021/10/18 14:56:25;;;;;;;;;;;14.60;99.90;;;;;;1992441;70;20224;-72
2021/10/18 14:58:56;;;;;;;;;;;14.60;99.90;;;;;;1984416;72;20119;-74
2021/10/18 15:01:22;;;;;;;;;;;14.60;99.90;;;;;;1984585;70;20166;-71
2021/10/18 15:03:49;;;;;;;;;;;14.60;99.90;;;;;;1978563;70;20162;-72
2021/10/18 15:06:15;;;;;;;;;;;14.50;99.90;;;;;;1988567;70;20225;-72
2021/10/18 15:08:42;;;;;;;;;;;14.50;99.90;;;;;;1985485;72;20219;-72
2021/10/18 15:11:09;;;;;;;;;;;14.50;99.90;;;;;;1987326;70;20121;-72
2021/10/18 15:13:37;;;;;;;;;;;14.50;99.90;;;;;;1987659;70;20549;-72
2021/10/18 15:16:04;;;;;;;;;;;14.50;99.90;;;;;;1986180;70;20164;-71
2021/10/18 15:18:31;;;;;;;;;;;14.50;99.90;;;;;;1985152;71;20208;-74
2021/10/18 15:20:58;;;;;;;;;;;14.50;99.90;;;;;;1984704;70;20178;-72
2021/10/18 15:23:25;;;;;;;;;;;14.50;99.90;;;;;;1989195;70;20157;-72
2021/10/18 15:25:52;;;;;;;;;;;14.50;99.90;;;;;;1990811;70;20395;-72
2021/10/18 15:28:19;;;;;;;;;;;14.50;99.90;;;;;;1981015;71;20151;-72